Startpagina
METAR-TAF:

METAR-TAF

Vliegvelden :

Perth, Australië

Perth Airport

breedte: 31-56S, lengte: 115-57E, hoogte: 20 m

Actueel weer

Dit bericht is 39 minuten geleden gemaakt, om 06:30 UTC
Wind 10 kt uit het westen
Temperatuur 26°C
Vochtigheid 26%
Druk 1023 hPa
Zicht 10 km of meer
geen wolken onder 1500 m en geen cumulonimbus

METAR: YPPH 270630Z 26010KT CAVOK 26/05 Q1023 NOSIG

Tijdstip: 15:09 (07:09 UTC)

Verwachting

Dit bericht is 1 uur en het 59 minuten geleden gemaakt, om 05:10 UTC
Verwachting geldig van 27 om 06 UTC tot 28 om 12 UTC
Wind 12 kt uit het zuidwesten
Zicht 10 km of meer
geen wolken onder 1500 m en geen cumulonimbus
Van 27 om 1500 UTC
Wind 5 kt uit variabele richting
Zicht 10 km of meer
geen wolken onder 1500 m en geen cumulonimbus
Van 28 om 0700 UTC
Wind 12 kt uit het zuidwesten
Zicht 10 km of meer
geen wolken onder 1500 m en geen cumulonimbus

TAF: YPPH 270510Z 2706/2812 22012KT CAVOK FM271500 VRB05KT CAVOK FM280700 22012KT CAVOK

Waarnemingen en weersverwachtingen van meer dan 4000 vliegvelden (METAR en TAF).

De beschikbare stations zijn de gele en rode punten op de kaart.

Ga met uw muis naar het station om de naam te zien.

Klik dan om waarnemingen en weersverwachtingen te zien.

kaart wijzigen: klik op de groene knoppen met een zwart kruis om in te zoomen, op de groene knop met een streepje om uit te zoomen of op de groene pijlen voor aangrenzende kaarten.


METAR-TAF: